createdAt,value
2023-01-05T00:01:57.784Z,64.75
2023-01-05T00:04:24.755Z,65.11
2023-01-05T00:06:52.543Z,64.70
2023-01-05T00:09:19.484Z,64.61
2023-01-05T00:12:04.899Z,64.43
2023-01-05T00:14:52.791Z,64.81
2023-01-05T00:17:43.174Z,64.60
2023-01-05T00:20:34.417Z,64.40
2023-01-05T00:23:02.186Z,64.76
2023-01-05T00:25:31.204Z,64.84
2023-01-05T00:27:59.730Z,64.49
2023-01-05T00:30:30.442Z,64.26
2023-01-05T00:32:57.105Z,64.59
2023-01-05T00:35:24.415Z,64.64
2023-01-05T00:37:51.434Z,64.83
2023-01-05T00:40:20.339Z,64.03
2023-01-05T00:42:47.599Z,63.80
2023-01-05T00:45:16.431Z,63.90
2023-01-05T00:47:43.447Z,63.78
2023-01-05T00:50:13.531Z,63.46
2023-01-05T00:52:40.231Z,63.39
2023-01-05T00:55:07.355Z,63.43
2023-01-05T00:57:34.041Z,63.52
2023-01-05T01:00:02.282Z,63.95
2023-01-05T01:02:29.247Z,63.88
2023-01-05T01:04:56.107Z,63.65
2023-01-05T01:07:22.859Z,63.89
2023-01-05T01:09:49.494Z,64.78
2023-01-05T01:12:16.228Z,64.72
2023-01-05T01:14:46.109Z,64.22
2023-01-05T01:17:12.833Z,64.09
2023-01-05T01:19:39.443Z,64.43
2023-01-05T01:22:06.081Z,64.26
2023-01-05T01:24:32.772Z,65.58
2023-01-05T01:27:01.941Z,65.00
2023-01-05T01:29:29.659Z,64.96
2023-01-05T01:31:56.395Z,64.48
2023-01-05T01:34:23.463Z,64.19
2023-01-05T01:36:50.334Z,63.82
2023-01-05T01:39:17.064Z,64.07
2023-01-05T01:41:43.806Z,64.04
2023-01-05T01:44:47.679Z,63.72
2023-01-05T01:47:31.536Z,63.85
2023-01-05T01:50:02.844Z,63.82
2023-01-05T01:52:31.808Z,63.73
2023-01-05T01:54:59.131Z,63.28
2023-01-05T01:57:28.128Z,63.59
2023-01-05T01:59:56.031Z,64.00
2023-01-05T02:02:23.645Z,63.79
2023-01-05T02:04:51.272Z,63.70
2023-01-05T02:07:17.975Z,63.95
2023-01-05T02:09:45.052Z,63.98
2023-01-05T02:12:35.829Z,63.88
2023-01-05T02:15:14.459Z,63.61
2023-01-05T02:17:57.432Z,63.54
2023-01-05T02:20:43.386Z,63.62
2023-01-05T02:23:12.888Z,63.76
2023-01-05T02:26:08.533Z,63.69
2023-01-05T02:29:02.868Z,63.73
2023-01-05T02:31:40.565Z,64.43
2023-01-05T02:34:22.947Z,64.40
2023-01-05T02:36:59.977Z,64.04
2023-01-05T02:39:33.588Z,63.84
2023-01-05T02:42:03.596Z,63.58
2023-01-05T02:44:32.610Z,63.84
2023-01-05T02:47:01.625Z,63.47
2023-01-05T02:49:32.011Z,63.87
2023-01-05T02:52:02.356Z,63.65
2023-01-05T02:54:45.888Z,63.67
2023-01-05T02:57:18.023Z,64.01
2023-01-05T02:59:50.102Z,63.60
2023-01-05T03:02:29.911Z,63.50
2023-01-05T03:05:04.408Z,63.93
2023-01-05T03:07:34.876Z,63.87
2023-01-05T03:10:22.018Z,64.12
2023-01-05T03:13:09.385Z,65.29
2023-01-05T03:15:39.541Z,67.14
2023-01-05T03:18:09.526Z,66.99
2023-01-05T03:20:40.361Z,65.85
2023-01-05T03:23:39.128Z,65.25
2023-01-05T03:26:26.921Z,65.43
2023-01-05T03:29:18.228Z,65.33
2023-01-05T03:32:06.114Z,65.55
2023-01-05T03:35:02.565Z,65.34
2023-01-05T03:38:00.184Z,64.91
2023-01-05T03:40:31.042Z,65.04
2023-01-05T03:42:58.219Z,65.25
2023-01-05T03:45:28.552Z,65.21
2023-01-05T03:47:56.123Z,64.80
2023-01-05T03:50:22.800Z,65.22
2023-01-05T03:52:49.413Z,65.11
2023-01-05T03:55:16.138Z,65.42
2023-01-05T03:57:42.755Z,64.85
2023-01-05T04:00:10.178Z,64.85
2023-01-05T04:02:37.090Z,64.74
2023-01-05T04:05:04.040Z,65.17
2023-01-05T04:07:30.603Z,65.30
2023-01-05T04:09:57.307Z,66.03
2023-01-05T04:12:23.917Z,65.98
2023-01-05T04:14:50.512Z,65.63
2023-01-05T04:17:17.181Z,65.18
2023-01-05T04:19:43.761Z,65.50
2023-01-05T04:22:10.399Z,65.28
2023-01-05T04:24:37.053Z,65.02
2023-01-05T04:27:03.786Z,65.09
2023-01-05T04:29:30.418Z,65.07
2023-01-05T04:31:57.049Z,64.92
2023-01-05T04:34:23.626Z,64.64
2023-01-05T04:36:50.821Z,64.64
2023-01-05T04:39:17.525Z,64.30
2023-01-05T04:41:44.246Z,64.17
2023-01-05T04:44:10.972Z,63.81
2023-01-05T04:46:37.657Z,63.86
2023-01-05T04:49:07.402Z,64.49
2023-01-05T04:51:34.101Z,64.23
2023-01-05T04:54:00.745Z,64.60
2023-01-05T04:56:27.493Z,64.39
2023-01-05T04:58:54.130Z,64.61
2023-01-05T05:01:20.977Z,65.26
2023-01-05T05:03:47.807Z,65.40
2023-01-05T05:06:14.449Z,64.81
2023-01-05T05:08:41.164Z,64.52
2023-01-05T05:11:07.811Z,64.55
2023-01-05T05:13:34.480Z,65.02
2023-01-05T05:16:02.374Z,64.85
2023-01-05T05:18:29.150Z,64.88
2023-01-05T05:20:55.920Z,64.44
2023-01-05T05:23:22.606Z,67.25
2023-01-05T05:25:51.311Z,66.46
2023-01-05T05:28:18.900Z,65.47
2023-01-05T05:30:45.576Z,65.82
2023-01-05T05:33:12.223Z,65.29
2023-01-05T05:35:38.816Z,65.08
2023-01-05T05:38:05.431Z,64.96
2023-01-05T05:40:32.140Z,64.54
2023-01-05T05:42:58.915Z,64.53
2023-01-05T05:45:25.597Z,64.68
2023-01-05T05:47:52.296Z,64.40
2023-01-05T05:50:18.963Z,64.46
2023-01-05T05:52:45.628Z,64.23
2023-01-05T05:55:12.340Z,64.28
2023-01-05T05:57:39.021Z,64.27
2023-01-05T06:00:06.529Z,64.78
2023-01-05T06:02:33.296Z,65.16
2023-01-05T06:04:59.964Z,66.75
2023-01-05T06:07:26.709Z,66.51
2023-01-05T06:09:53.304Z,67.43
2023-01-05T06:12:19.935Z,67.98
2023-01-05T06:14:46.634Z,75.06
2023-01-05T06:17:13.297Z,71.59
2023-01-05T06:19:39.994Z,69.04
2023-01-05T06:22:06.664Z,71.25
2023-01-05T06:24:33.532Z,72.01
2023-01-05T06:27:00.203Z,71.10
2023-01-05T06:29:26.847Z,70.03
2023-01-05T06:31:53.539Z,68.62
2023-01-05T06:34:20.140Z,68.50
2023-01-05T06:36:47.024Z,67.83
2023-01-05T06:39:13.867Z,67.42
2023-01-05T06:41:40.484Z,67.13
2023-01-05T06:44:07.119Z,68.24
2023-01-05T06:46:33.867Z,77.84
2023-01-05T06:49:00.482Z,76.12
2023-01-05T06:51:27.138Z,72.59
2023-01-05T06:53:53.778Z,71.82
2023-01-05T06:56:21.582Z,71.19
2023-01-05T06:58:48.159Z,71.65
2023-01-05T07:01:14.967Z,70.45
2023-01-05T07:03:41.723Z,70.07
2023-01-05T07:06:14.454Z,69.13
2023-01-05T07:08:41.623Z,68.87
2023-01-05T07:11:08.196Z,67.66
2023-01-05T07:13:34.831Z,68.81
2023-01-05T07:16:02.318Z,68.16
2023-01-05T07:18:28.938Z,67.92
2023-01-05T07:20:55.543Z,67.34
2023-01-05T07:23:22.198Z,67.72
2023-01-05T07:25:48.813Z,67.85
2023-01-05T07:28:16.535Z,67.58
2023-01-05T07:30:43.128Z,67.23
2023-01-05T07:33:09.746Z,67.20
2023-01-05T07:35:36.441Z,67.15
2023-01-05T07:38:03.077Z,67.33
2023-01-05T07:40:29.757Z,66.72
2023-01-05T07:42:56.342Z,70.12
2023-01-05T07:45:23.008Z,68.69
2023-01-05T07:47:49.796Z,68.40
2023-01-05T07:50:16.550Z,67.38
2023-01-05T07:52:43.221Z,69.46
2023-01-05T07:55:10.184Z,69.37
2023-01-05T07:57:36.912Z,67.81
2023-01-05T08:00:05.349Z,67.62
2023-01-05T08:02:36.098Z,68.32
2023-01-05T08:05:03.358Z,67.87
2023-01-05T08:07:29.971Z,67.88
2023-01-05T08:10:15.293Z,67.09
2023-01-05T08:13:00.315Z,66.95
2023-01-05T08:15:27.346Z,66.92
2023-01-05T08:17:53.928Z,67.80
2023-01-05T08:20:20.707Z,66.84
2023-01-05T08:22:54.235Z,66.67
2023-01-05T08:25:21.496Z,68.27
2023-01-05T08:27:48.514Z,66.42
2023-01-05T08:30:15.388Z,67.43
2023-01-05T08:32:42.563Z,67.44
2023-01-05T08:35:09.633Z,68.27
2023-01-05T08:37:36.283Z,66.78
2023-01-05T08:40:03.631Z,65.95
2023-01-05T08:42:30.238Z,67.44
2023-01-05T08:44:56.851Z,71.59
2023-01-05T08:47:27.975Z,69.17
2023-01-05T08:49:55.510Z,69.11
2023-01-05T08:52:23.391Z,68.60
2023-01-05T08:54:50.612Z,66.67
2023-01-05T08:57:17.262Z,65.95
2023-01-05T08:59:43.916Z,68.29
2023-01-05T09:02:13.657Z,69.81
2023-01-05T09:04:40.360Z,70.95
2023-01-05T09:07:06.966Z,73.58
2023-01-05T09:09:33.686Z,74.49
2023-01-05T09:12:00.365Z,71.88
2023-01-05T09:14:26.979Z,72.96
2023-01-05T09:17:07.002Z,70.77
2023-01-05T09:19:34.686Z,68.66
2023-01-05T09:22:02.557Z,69.22
2023-01-05T09:24:29.294Z,68.74
2023-01-05T09:26:56.854Z,65.79
2023-01-05T09:29:23.562Z,64.74
2023-01-05T09:31:50.374Z,64.82
2023-01-05T09:34:19.103Z,64.04
2023-01-05T09:36:46.193Z,63.77
2023-01-05T09:39:12.872Z,65.81
2023-01-05T09:41:59.089Z,64.76
2023-01-05T09:44:55.398Z,63.80
2023-01-05T09:47:46.887Z,64.64
2023-01-05T09:50:21.237Z,62.75
2023-01-05T09:52:49.688Z,62.00
2023-01-05T09:55:18.540Z,62.14
2023-01-05T09:58:10.561Z,61.97
2023-01-05T10:00:43.391Z,60.88
2023-01-05T10:03:53.478Z,60.45
2023-01-05T10:06:13.734Z,59.35
2023-01-05T10:08:45.274Z,59.60
2023-01-05T10:11:47.931Z,59.30
2023-01-05T10:14:35.394Z,58.75
2023-01-05T10:17:39.190Z,61.11
2023-01-05T10:19:49.465Z,60.91
2023-01-05T10:22:28.376Z,61.57
2023-01-05T10:25:04.713Z,60.37
2023-01-05T10:27:44.388Z,59.97
2023-01-05T10:30:22.499Z,59.58
2023-01-05T10:33:21.934Z,59.71
2023-01-05T10:36:02.694Z,60.31
2023-01-05T10:38:39.718Z,59.47
2023-01-05T10:41:29.875Z,59.87
2023-01-05T10:44:03.233Z,58.89
2023-01-05T10:46:37.875Z,59.32
2023-01-05T10:49:08.803Z,59.12
2023-01-05T10:51:36.574Z,59.97
2023-01-05T10:54:04.837Z,59.17
2023-01-05T10:56:33.148Z,58.01
2023-01-05T10:59:11.528Z,58.01
2023-01-05T11:01:42.717Z,57.58
2023-01-05T11:04:29.281Z,56.87
2023-01-05T11:07:07.374Z,56.81
2023-01-05T11:09:40.374Z,55.91
2023-01-05T11:12:19.379Z,54.51
2023-01-05T11:14:57.809Z,57.84
2023-01-05T11:17:28.451Z,61.34
2023-01-05T11:19:57.510Z,59.12
2023-01-05T11:22:34.815Z,58.58
2023-01-05T11:25:23.619Z,57.11
2023-01-05T11:28:08.906Z,57.63
2023-01-05T11:30:36.503Z,57.01
2023-01-05T11:33:03.411Z,57.60
2023-01-05T11:35:37.802Z,57.83
2023-01-05T11:38:04.619Z,56.71
2023-01-05T11:40:35.957Z,59.99
2023-01-05T11:43:11.978Z,59.54
2023-01-05T11:45:45.837Z,57.67
2023-01-05T11:48:18.754Z,55.85
2023-01-05T11:50:53.995Z,55.51
2023-01-05T11:53:39.990Z,55.35
2023-01-05T11:56:22.728Z,53.25
2023-01-05T11:58:51.992Z,53.42
2023-01-05T12:01:33.852Z,53.98
2023-01-05T12:04:03.087Z,54.34
2023-01-05T12:06:38.229Z,53.64
2023-01-05T12:09:10.019Z,53.27
2023-01-05T12:11:50.914Z,52.14
2023-01-05T12:14:55.272Z,50.64
2023-01-05T12:18:11.425Z,49.88
2023-01-05T12:20:40.933Z,48.98
2023-01-05T12:23:27.901Z,48.54
2023-01-05T12:26:18.609Z,48.48
2023-01-05T12:35:17.644Z,47.08
2023-01-05T12:38:15.434Z,47.10
2023-01-05T12:40:56.591Z,46.04
2023-01-05T12:43:35.310Z,45.54
2023-01-05T12:46:40.818Z,46.24
2023-01-05T12:49:17.739Z,45.17
2023-01-05T12:52:06.817Z,46.00
2023-01-05T12:54:44.969Z,46.45
2023-01-05T12:57:19.134Z,45.69
2023-01-05T12:59:54.541Z,45.91
2023-01-05T13:02:36.645Z,46.07
2023-01-05T13:05:09.171Z,46.43
2023-01-05T13:07:47.891Z,47.50
2023-01-05T13:10:24.148Z,46.51
2023-01-05T13:12:56.976Z,46.18
2023-01-05T13:15:29.648Z,45.63
2023-01-05T13:17:58.936Z,46.46
2023-01-05T13:20:36.123Z,46.63
2023-01-05T13:23:14.625Z,46.31
2023-01-05T13:26:11.093Z,46.67
2023-01-05T13:28:37.934Z,46.58
2023-01-05T13:31:29.747Z,46.62
2023-01-05T13:34:09.522Z,47.01
2023-01-05T13:36:54.192Z,46.57
2023-01-05T13:39:29.488Z,46.78
2023-01-05T13:42:17.159Z,46.73
2023-01-05T13:44:58.655Z,46.67
2023-01-05T13:47:57.132Z,46.71
2023-01-05T13:50:44.832Z,45.94
2023-01-05T13:53:13.439Z,46.33
2023-01-05T13:55:55.237Z,46.59
2023-01-05T14:01:20.667Z,47.04
2023-01-05T14:03:54.996Z,46.82
2023-01-05T14:06:26.145Z,45.10
2023-01-05T14:09:14.322Z,43.85
2023-01-05T14:12:14.893Z,45.62
2023-01-05T14:15:01.471Z,46.02
2023-01-05T14:17:55.755Z,45.69
2023-01-05T14:20:46.950Z,46.26
2023-01-05T14:23:22.944Z,46.62
2023-01-05T14:26:04.559Z,46.44
2023-01-05T14:28:31.172Z,47.65
2023-01-05T14:31:16.820Z,46.85
2023-01-05T14:33:54.025Z,47.27
2023-01-05T14:36:31.791Z,47.97
2023-01-05T14:38:59.797Z,48.12
2023-01-05T14:41:28.784Z,48.03
2023-01-05T14:44:03.389Z,48.43
2023-01-05T14:46:45.725Z,48.67
2023-01-05T14:49:23.588Z,50.10
2023-01-05T14:51:55.996Z,49.38
2023-01-05T14:55:04.951Z,50.25
2023-01-05T14:57:39.028Z,50.08
2023-01-05T15:00:11.607Z,50.55
2023-01-05T15:02:48.772Z,51.97
2023-01-05T15:05:18.015Z,53.19
2023-01-05T15:07:56.627Z,52.37
2023-01-05T15:10:55.468Z,52.58
2023-01-05T15:13:25.077Z,52.44
2023-01-05T15:16:03.924Z,52.44
2023-01-05T15:18:49.167Z,52.47
2023-01-05T15:21:53.462Z,52.55
2023-01-05T15:24:44.136Z,53.20
2023-01-05T15:27:48.078Z,53.33
2023-01-05T15:30:21.662Z,53.32
2023-01-05T15:32:58.023Z,53.08
2023-01-05T15:35:44.865Z,52.80
2023-01-05T15:38:30.087Z,53.31
2023-01-05T15:41:10.898Z,53.80
2023-01-05T15:43:40.432Z,53.13
2023-01-05T15:46:07.916Z,53.08
2023-01-05T15:48:42.731Z,53.28
2023-01-05T15:51:13.805Z,53.60
2023-01-05T15:53:41.304Z,53.87
2023-01-05T15:56:35.855Z,53.55
2023-01-05T15:59:04.318Z,53.71
2023-01-05T16:01:30.919Z,53.92
2023-01-05T16:04:14.593Z,54.08
2023-01-05T16:06:45.855Z,53.95
2023-01-05T16:09:47.900Z,54.20
2023-01-05T16:12:25.801Z,53.80
2023-01-05T16:15:02.175Z,54.16
2023-01-05T16:17:37.677Z,54.42
2023-01-05T16:20:12.095Z,54.38
2023-01-05T16:22:49.101Z,54.29
2023-01-05T16:25:25.391Z,54.58
2023-01-05T16:28:01.609Z,55.51
2023-01-05T16:30:41.294Z,55.06
2023-01-05T16:33:15.088Z,56.83
2023-01-05T16:35:49.740Z,56.71
2023-01-05T16:38:29.620Z,55.39
2023-01-05T16:41:03.836Z,55.42
2023-01-05T16:43:57.011Z,57.50
2023-01-05T16:47:04.917Z,57.05
2023-01-05T16:49:53.290Z,56.44
2023-01-05T16:52:27.345Z,57.04
2023-01-05T16:55:29.170Z,57.41
2023-01-05T16:57:56.908Z,56.70
2023-01-05T17:00:26.870Z,56.52
2023-01-05T17:03:07.981Z,56.45
2023-01-05T17:05:35.074Z,56.22
2023-01-05T17:08:11.514Z,56.25
2023-01-05T17:10:41.530Z,56.52
2023-01-05T17:13:14.848Z,56.39
2023-01-05T17:15:45.698Z,56.07
2023-01-05T17:20:50.902Z,56.18
2023-01-05T17:23:20.559Z,56.58
2023-01-05T17:25:47.710Z,57.04
2023-01-05T17:28:14.498Z,56.78
2023-01-05T17:30:41.212Z,56.74
2023-01-05T17:33:08.985Z,56.29
2023-01-05T17:35:36.185Z,56.26
2023-01-05T17:38:02.912Z,56.36
2023-01-05T17:40:30.524Z,56.15
2023-01-05T17:42:57.143Z,54.96
2023-01-05T17:45:27.222Z,53.90
2023-01-05T17:47:54.663Z,53.90
2023-01-05T17:50:28.137Z,51.73
2023-01-05T17:52:55.708Z,52.65
2023-01-05T17:55:22.432Z,51.91
2023-01-05T17:57:49.707Z,50.57
2023-01-05T18:00:21.836Z,50.92
2023-01-05T18:02:50.216Z,50.54
2023-01-05T18:05:17.134Z,50.08
2023-01-05T18:07:43.813Z,50.25
2023-01-05T18:10:17.824Z,48.91
2023-01-05T18:12:47.487Z,49.35
2023-01-05T18:15:14.842Z,48.61
2023-01-05T18:17:42.587Z,48.62
2023-01-05T18:20:12.686Z,50.16
2023-01-05T18:22:39.885Z,49.81
2023-01-05T18:27:43.469Z,53.96
2023-01-05T18:30:11.638Z,53.68
2023-01-05T18:33:07.570Z,55.30
2023-01-05T18:35:36.148Z,56.33
2023-01-05T18:38:05.065Z,55.41
2023-01-05T18:40:31.821Z,55.19
2023-01-05T18:42:58.723Z,56.59
2023-01-05T18:45:38.106Z,56.51
2023-01-05T18:48:05.918Z,57.61
2023-01-05T18:50:32.587Z,56.71
2023-01-05T18:52:59.318Z,57.43
2023-01-05T18:55:25.964Z,56.67
2023-01-05T18:57:52.654Z,55.97
2023-01-05T19:00:19.506Z,56.61
2023-01-05T19:02:46.172Z,58.49
2023-01-05T19:05:12.800Z,58.60
2023-01-05T19:07:39.943Z,57.49
2023-01-05T19:10:07.218Z,57.03
2023-01-05T19:12:33.918Z,56.98
2023-01-05T19:15:00.693Z,60.50
2023-01-05T19:17:27.964Z,65.17
2023-01-05T19:19:55.247Z,63.97
2023-01-05T19:22:21.843Z,60.41
2023-01-05T19:24:48.686Z,58.71
2023-01-05T19:27:15.733Z,58.03
2023-01-05T19:29:42.432Z,57.56
2023-01-05T19:32:09.284Z,57.46
2023-01-05T19:34:36.231Z,57.32
2023-01-05T19:37:05.732Z,56.90
2023-01-05T19:39:32.602Z,56.99
2023-01-05T19:41:59.260Z,57.00
2023-01-05T19:44:30.026Z,57.63
2023-01-05T19:47:00.531Z,57.58
2023-01-05T19:49:27.976Z,57.19
2023-01-05T19:51:55.771Z,56.82
2023-01-05T19:54:26.344Z,56.56
2023-01-05T19:56:54.742Z,55.82
2023-01-05T19:59:29.191Z,54.40
2023-01-05T20:01:56.457Z,54.39
2023-01-05T20:04:23.131Z,53.71
2023-01-05T20:06:49.880Z,53.69
2023-01-05T20:09:19.088Z,52.66
2023-01-05T20:11:48.972Z,52.91
2023-01-05T20:14:32.035Z,53.74
2023-01-05T20:17:09.451Z,52.49
2023-01-05T20:19:38.482Z,53.30
2023-01-05T20:22:07.615Z,55.01
2023-01-05T20:24:39.453Z,54.16
2023-01-05T20:27:09.309Z,55.26
2023-01-05T20:29:36.061Z,52.95
2023-01-05T20:32:28.818Z,52.50
2023-01-05T20:35:00.193Z,51.56
2023-01-05T20:37:29.043Z,52.78
2023-01-05T20:39:58.265Z,52.80
2023-01-05T20:42:27.336Z,51.88
2023-01-05T20:44:54.004Z,51.74
2023-01-05T20:47:20.646Z,53.75
2023-01-05T20:49:47.527Z,53.81
2023-01-05T20:52:16.105Z,52.83
2023-01-05T20:54:42.901Z,52.28
2023-01-05T20:57:10.413Z,52.46
2023-01-05T20:59:38.918Z,50.73
2023-01-05T21:02:12.283Z,49.30
2023-01-05T21:04:44.984Z,48.74
2023-01-05T21:07:11.763Z,47.95
2023-01-05T21:09:38.591Z,49.05
2023-01-05T21:12:05.394Z,49.25
2023-01-05T21:14:32.049Z,50.00
2023-01-05T21:16:58.786Z,48.73
2023-01-05T21:19:25.739Z,49.00
2023-01-05T21:21:56.062Z,49.33
2023-01-05T21:24:24.015Z,49.00
2023-01-05T21:26:50.826Z,47.73
2023-01-05T21:29:20.344Z,46.30
2023-01-05T21:31:47.146Z,48.36
2023-01-05T21:34:15.078Z,47.61
2023-01-05T21:36:45.316Z,46.07
2023-01-05T21:39:19.986Z,45.83
2023-01-05T21:42:05.954Z,48.81
2023-01-05T21:44:33.084Z,47.82
2023-01-05T21:47:00.030Z,47.83
2023-01-05T21:49:27.235Z,48.14
2023-01-05T21:52:12.440Z,47.85
2023-01-05T21:54:57.747Z,48.56
2023-01-05T21:57:24.774Z,47.39
2023-01-05T21:59:51.382Z,47.76
2023-01-05T22:02:21.559Z,47.59
2023-01-05T22:04:48.143Z,47.96
2023-01-05T22:07:14.883Z,47.82
2023-01-05T22:09:41.622Z,47.81
2023-01-05T22:12:09.261Z,46.99
2023-01-05T22:14:42.446Z,46.31
2023-01-05T22:17:09.695Z,46.50
2023-01-05T22:19:36.512Z,47.77
2023-01-05T22:22:03.736Z,46.91
2023-01-05T22:24:30.406Z,47.01
2023-01-05T22:26:57.070Z,48.63
2023-01-05T22:29:23.917Z,49.44
2023-01-05T22:31:51.037Z,50.50
2023-01-05T22:34:18.001Z,49.89
2023-01-05T22:36:45.181Z,48.91
2023-01-05T22:39:12.391Z,49.06
2023-01-05T22:41:39.344Z,49.24
2023-01-05T22:44:06.367Z,50.04
2023-01-05T22:46:33.608Z,49.33
2023-01-05T22:49:01.096Z,48.83
2023-01-05T22:51:33.391Z,48.90
2023-01-05T22:54:00.833Z,47.91
2023-01-05T22:56:29.256Z,48.82
2023-01-05T22:58:56.866Z,48.33
2023-01-05T23:01:26.760Z,48.43
2023-01-05T23:03:55.219Z,48.06
2023-01-05T23:06:22.449Z,48.18
2023-01-05T23:08:51.099Z,48.08
2023-01-05T23:11:24.059Z,47.78
2023-01-05T23:13:52.331Z,50.04
2023-01-05T23:16:19.273Z,49.82
2023-01-05T23:18:46.318Z,48.89
2023-01-05T23:21:14.247Z,48.77
2023-01-05T23:23:41.449Z,49.42
2023-01-05T23:26:09.497Z,49.22
2023-01-05T23:28:36.635Z,49.07
2023-01-05T23:31:04.715Z,48.88
2023-01-05T23:33:34.876Z,48.44
2023-01-05T23:36:02.400Z,49.07
2023-01-05T23:38:29.269Z,49.00
2023-01-05T23:40:57.578Z,49.40
2023-01-05T23:43:26.315Z,49.11
2023-01-05T23:46:00.340Z,50.68
2023-01-05T23:48:27.537Z,51.56
2023-01-05T23:50:55.304Z,51.95
2023-01-05T23:53:22.336Z,52.43
2023-01-05T23:55:48.971Z,51.71
2023-01-05T23:58:15.675Z,52.55
